createdAt,value
2022-12-03T00:00:19.679Z,102466.13
2022-12-03T00:02:47.448Z,102460.06
2022-12-03T00:05:16.711Z,102456.84
2022-12-03T00:07:44.406Z,102457.28
2022-12-03T00:10:12.983Z,102458.06
2022-12-03T00:12:40.728Z,102458.88
2022-12-03T00:15:09.850Z,102455.44
2022-12-03T00:17:37.642Z,102454.66
2022-12-03T00:20:06.228Z,102453.66
2022-12-03T00:22:35.231Z,102459.69
2022-12-03T00:25:02.869Z,102461.31
2022-12-03T00:27:30.476Z,102458.72
2022-12-03T00:29:58.106Z,102449.25
2022-12-03T00:32:25.768Z,102451.66
2022-12-03T00:34:53.725Z,102443.81
2022-12-03T00:37:21.628Z,102443.03
2022-12-03T00:39:50.628Z,102443.03
2022-12-03T00:42:18.308Z,102440.41
2022-12-03T00:44:46.016Z,102436.78
2022-12-03T00:47:13.888Z,102441.19
2022-12-03T00:49:41.760Z,102430.94
2022-12-03T00:52:09.371Z,102435.34
2022-12-03T00:54:36.997Z,102435.19
2022-12-03T00:57:06.053Z,102433.56
2022-12-03T00:59:33.739Z,102428.13
2022-12-03T01:02:01.408Z,102432.34
2022-12-03T01:04:29.126Z,102421.28
2022-12-03T01:06:56.883Z,102424.72
2022-12-03T01:09:24.571Z,102424.72
2022-12-03T01:11:52.212Z,102422.88
2022-12-03T01:14:21.584Z,102422.09
2022-12-03T01:16:49.475Z,102416.88
2022-12-03T01:19:18.328Z,102408.22
2022-12-03T01:21:49.438Z,102411.66
2022-12-03T01:24:17.145Z,102404.78
2022-12-03T01:26:44.776Z,102410.63
2022-12-03T01:29:12.476Z,102409.63
2022-12-03T01:31:59.210Z,102405.41
2022-12-03T01:34:26.924Z,102409.03
2022-12-03T01:36:54.639Z,102408.00
2022-12-03T01:39:22.319Z,102405.41
2022-12-03T01:41:52.652Z,102408.00
2022-12-03T01:44:23.560Z,102407.81
2022-12-03T01:46:55.162Z,102406.22
2022-12-03T01:49:27.184Z,102408.00
2022-12-03T01:51:56.019Z,102406.22
2022-12-03T01:54:28.580Z,102403.00
2022-12-03T01:56:56.618Z,102402.16
2022-12-03T01:59:33.821Z,102405.41
2022-12-03T02:02:12.494Z,102402.78
2022-12-03T02:04:40.412Z,102400.97
2022-12-03T02:07:19.728Z,102400.78
2022-12-03T02:09:47.551Z,102395.53
2022-12-03T02:12:18.604Z,102397.34
2022-12-03T02:14:47.021Z,102402.41
2022-12-03T02:17:16.807Z,102405.00
2022-12-03T02:19:44.535Z,102392.94
2022-12-03T02:22:23.994Z,102392.94
2022-12-03T02:24:59.951Z,102392.94
2022-12-03T02:27:29.772Z,102398.16
2022-12-03T02:29:57.716Z,102393.75
2022-12-03T02:32:25.375Z,102395.38
2022-12-03T02:34:53.243Z,102398.59
2022-12-03T02:37:24.983Z,102395.97
2022-12-03T02:39:55.733Z,102393.38
2022-12-03T02:42:35.990Z,102394.97
2022-12-03T02:45:09.790Z,102392.16
2022-12-03T02:47:42.384Z,102386.94
2022-12-03T02:50:12.410Z,102387.72
2022-12-03T02:52:41.172Z,102389.56
2022-12-03T02:55:10.664Z,102389.72
2022-12-03T02:57:39.685Z,102382.09
2022-12-03T03:00:10.835Z,102382.69
2022-12-03T03:02:40.355Z,102381.72
2022-12-03T03:05:11.508Z,102383.50
2022-12-03T03:07:40.684Z,102379.88
2022-12-03T03:10:12.638Z,102386.53
2022-12-03T03:12:40.417Z,102376.06
2022-12-03T03:15:12.196Z,102378.69
2022-12-03T03:17:40.378Z,102376.50
2022-12-03T03:20:10.171Z,102374.06
2022-12-03T03:22:40.456Z,102373.88
2022-12-03T03:25:11.828Z,102373.69
2022-12-03T03:27:41.218Z,102369.47
2022-12-03T03:30:12.012Z,102363.41
2022-12-03T03:32:41.020Z,102362.59
2022-12-03T03:35:09.999Z,102369.25
2022-12-03T03:37:37.827Z,102363.22
2022-12-03T03:40:06.580Z,102358.78
2022-12-03T03:42:34.628Z,102361.41
2022-12-03T03:45:02.511Z,102352.56
2022-12-03T03:47:31.567Z,102357.81
2022-12-03T03:49:59.386Z,102355.97
2022-12-03T03:52:27.176Z,102355.19
2022-12-03T03:54:55.043Z,102353.56
2022-12-03T03:57:22.789Z,102349.16
2022-12-03T03:59:50.507Z,102354.38
2022-12-03T04:02:20.705Z,102345.50
2022-12-03T04:04:49.854Z,102341.09
2022-12-03T04:07:18.021Z,102346.31
2022-12-03T04:09:45.743Z,102346.31
2022-12-03T04:12:31.826Z,102343.72
2022-12-03T04:15:00.001Z,102351.56
2022-12-03T04:17:27.786Z,102342.91
2022-12-03T04:19:56.723Z,102335.88
2022-12-03T04:22:41.586Z,102342.13
2022-12-03T04:25:28.202Z,102329.81
2022-12-03T04:28:13.929Z,102342.13
2022-12-03T04:30:41.638Z,102330.84
2022-12-03T04:33:26.795Z,102334.25
2022-12-03T04:35:55.828Z,102326.41
2022-12-03T04:38:23.496Z,102333.47
2022-12-03T04:41:01.502Z,102328.22
2022-12-03T04:43:29.932Z,102325.41
2022-12-03T04:45:57.443Z,102323.81
2022-12-03T04:48:25.608Z,102323.38
2022-12-03T04:50:53.334Z,102320.59
2022-12-03T04:53:22.283Z,102323.22
2022-12-03T04:55:49.884Z,102329.44
2022-12-03T04:58:17.524Z,102320.59
2022-12-03T05:00:45.116Z,102328.44
2022-12-03T05:03:12.756Z,102326.59
2022-12-03T05:05:40.415Z,102324.00
2022-12-03T05:08:08.258Z,102324.19
2022-12-03T05:10:37.327Z,102327.41
2022-12-03T05:13:04.997Z,102319.78
2022-12-03T05:15:32.643Z,102325.81
2022-12-03T05:18:00.280Z,102329.44
2022-12-03T05:20:46.959Z,102323.22
2022-12-03T05:23:19.151Z,102318.16
2022-12-03T05:25:48.338Z,102326.22
2022-12-03T05:28:16.137Z,102323.59
2022-12-03T05:30:43.990Z,102321.78
2022-12-03T05:33:11.729Z,102328.22
2022-12-03T05:35:39.367Z,102321.38
2022-12-03T05:38:07.036Z,102311.28
2022-12-03T05:40:34.725Z,102312.91
2022-12-03T05:43:02.795Z,102314.13
2022-12-03T05:45:32.706Z,102310.69
2022-12-03T05:48:01.321Z,102308.28
2022-12-03T05:50:31.150Z,102305.88
2022-12-03T05:52:58.969Z,102311.72
2022-12-03T05:55:26.784Z,102301.03
2022-12-03T05:57:54.464Z,102300.22
2022-12-03T06:00:25.587Z,102301.25
2022-12-03T06:02:54.151Z,102296.84
2022-12-03T06:05:23.265Z,102290.78
2022-12-03T06:07:53.082Z,102296.03
2022-12-03T06:10:22.832Z,102293.41
2022-12-03T06:12:50.951Z,102288.34
2022-12-03T06:15:19.270Z,102280.72
2022-12-03T06:17:48.737Z,102283.34
2022-12-03T06:20:18.467Z,102280.72
2022-12-03T06:22:46.508Z,102279.72
2022-12-03T06:25:14.520Z,102277.13
2022-12-03T06:27:42.150Z,102282.34
2022-12-03T06:30:12.178Z,102279.72
2022-12-03T06:32:39.818Z,102283.13
2022-12-03T06:35:09.873Z,102289.16
2022-12-03T06:37:37.489Z,102286.75
2022-12-03T06:40:05.834Z,102284.16
2022-12-03T06:42:33.467Z,102285.94
2022-12-03T06:45:01.192Z,102280.72
2022-12-03T06:47:28.795Z,102280.72
2022-12-03T06:49:56.420Z,102283.34
2022-12-03T06:52:25.433Z,102275.50
2022-12-03T06:54:53.322Z,102280.72
2022-12-03T06:57:21.128Z,102280.13
2022-12-03T06:59:48.929Z,102279.09
2022-12-03T07:02:16.568Z,102281.91
2022-12-03T07:04:46.376Z,102282.72
2022-12-03T07:07:14.569Z,102282.72
2022-12-03T07:09:43.591Z,102284.31
2022-12-03T07:12:11.434Z,102289.75
2022-12-03T07:14:39.062Z,102283.94
2022-12-03T07:17:06.722Z,102285.56
2022-12-03T07:19:34.419Z,102286.53
2022-12-03T07:22:02.110Z,102288.56
2022-12-03T07:24:29.801Z,102294.00
2022-12-03T07:26:58.738Z,102295.97
2022-12-03T07:29:26.459Z,102295.97
2022-12-03T07:31:54.196Z,102295.97
2022-12-03T07:34:21.935Z,102288.34
2022-12-03T07:36:49.583Z,102300.81
2022-12-03T07:39:17.539Z,102300.00
2022-12-03T07:41:45.237Z,102303.63
2022-12-03T07:44:15.005Z,102293.94
2022-12-03T07:46:42.998Z,102302.59
2022-12-03T07:49:12.079Z,102303.63
2022-12-03T07:51:41.868Z,102305.59
2022-12-03T07:54:09.794Z,102305.44
2022-12-03T07:56:37.459Z,102302.00
2022-12-03T07:59:05.142Z,102300.38
2022-12-03T08:01:34.157Z,102289.91
2022-12-03T08:04:02.615Z,102293.16
2022-12-03T08:06:30.247Z,102290.56
2022-12-03T08:08:57.935Z,102295.78
2022-12-03T08:11:25.640Z,102295.16
2022-12-03T08:13:53.288Z,102296.78
2022-12-03T08:16:22.209Z,102300.00
2022-12-03T08:18:52.267Z,102290.34
2022-12-03T08:21:21.959Z,102294.38
2022-12-03T08:23:49.751Z,102292.75
2022-12-03T08:26:23.547Z,102282.28
2022-12-03T08:28:51.509Z,102275.25
2022-12-03T08:31:20.898Z,102284.31
2022-12-03T08:33:50.425Z,102276.25
2022-12-03T08:36:22.630Z,102284.31
2022-12-03T08:38:52.936Z,102281.91
2022-12-03T08:41:35.656Z,102277.88
2022-12-03T08:44:15.770Z,102287.13
2022-12-03T08:46:43.453Z,102279.88
2022-12-03T08:49:11.214Z,102284.69
2022-12-03T08:51:40.212Z,102276.03
2022-12-03T08:54:15.355Z,102274.81
2022-12-03T08:56:43.871Z,102273.84
2022-12-03T08:59:23.862Z,102269.81
2022-12-03T09:01:53.363Z,102276.44
2022-12-03T09:04:24.157Z,102272.22
2022-12-03T09:06:54.052Z,102282.28
2022-12-03T09:09:21.959Z,102275.84
2022-12-03T09:11:50.151Z,102270.84
2022-12-03T09:14:21.147Z,102267.78
2022-12-03T09:16:49.347Z,102265.38
2022-12-03T09:19:17.257Z,102261.16
2022-12-03T09:21:44.975Z,102257.72
2022-12-03T09:24:14.143Z,102256.13
2022-12-03T09:26:41.855Z,102253.50
2022-12-03T09:29:12.339Z,102251.72
2022-12-03T09:31:40.602Z,102260.34
2022-12-03T09:34:09.150Z,102257.72
2022-12-03T09:36:36.609Z,102258.53
2022-12-03T09:39:04.736Z,102260.16
2022-12-03T09:41:33.793Z,102260.53
2022-12-03T09:44:04.404Z,102257.50
2022-12-03T09:46:34.574Z,102260.09
2022-12-03T09:49:02.816Z,102267.16
2022-12-03T09:51:33.973Z,102260.09
2022-12-03T09:54:02.604Z,102265.75
2022-12-03T09:56:30.350Z,102266.16
2022-12-03T09:59:00.141Z,102261.94
2022-12-03T10:01:30.363Z,102255.69
2022-12-03T10:03:59.373Z,102270.38
2022-12-03T10:06:27.199Z,102260.53
2022-12-03T10:08:56.356Z,102271.81
2022-12-03T10:11:26.085Z,102263.75
2022-12-03T10:13:55.895Z,102277.63
2022-12-03T10:16:26.131Z,102261.53
2022-12-03T10:18:56.963Z,102271.16
2022-12-03T10:21:26.988Z,102271.75
2022-12-03T10:24:28.462Z,102269.72
2022-12-03T10:26:58.428Z,102265.69
2022-12-03T10:29:33.238Z,102263.91
2022-12-03T10:32:05.209Z,102268.31
2022-12-03T10:34:35.088Z,102265.69
2022-12-03T10:37:17.311Z,102264.91
2022-12-03T10:39:59.417Z,102258.28
2022-12-03T10:42:28.369Z,102249.81
2022-12-03T10:45:09.754Z,102241.75
2022-12-03T10:47:38.950Z,102247.59
2022-12-03T10:50:16.315Z,102239.38
2022-12-03T10:52:44.253Z,102231.53
2022-12-03T10:55:14.125Z,102233.13
2022-12-03T10:57:45.616Z,102223.88
2022-12-03T11:00:17.847Z,102222.47
2022-12-03T11:02:54.682Z,102222.66
2022-12-03T11:05:28.014Z,102225.47
2022-12-03T11:07:56.537Z,102214.22
2022-12-03T11:10:24.627Z,102224.84
2022-12-03T11:13:29.872Z,102223.63
2022-12-03T11:15:58.068Z,102225.44
2022-12-03T11:19:00.304Z,102215.00
2022-12-03T11:21:28.547Z,102209.59
2022-12-03T11:24:16.041Z,102206.16
2022-12-03T11:27:26.435Z,102200.94
2022-12-03T11:30:02.190Z,102199.13
2022-12-03T11:33:07.265Z,102195.50
2022-12-03T11:36:15.368Z,102194.91
2022-12-03T11:38:52.946Z,102189.69
2022-12-03T11:41:24.380Z,102192.28
2022-12-03T11:44:29.400Z,102189.69
2022-12-03T11:46:59.226Z,102184.06
2022-12-03T11:49:40.024Z,102176.03
2022-12-03T11:52:23.968Z,102174.63
2022-12-03T11:54:54.903Z,102177.81
2022-12-03T11:57:30.344Z,102174.63
2022-12-03T12:00:03.848Z,102176.03
2022-12-03T12:02:31.704Z,102173.25
2022-12-03T12:05:16.420Z,102168.78
2022-12-03T12:07:47.824Z,102170.41
2022-12-03T12:10:16.212Z,102166.97
2022-12-03T12:12:54.369Z,102157.75
2022-12-03T12:15:44.048Z,102163.56
2022-12-03T12:18:40.050Z,102162.94
2022-12-03T12:21:47.672Z,102148.28
2022-12-03T12:24:46.775Z,102146.69
2022-12-03T12:27:15.747Z,102146.28
2022-12-03T12:29:45.795Z,102145.28
2022-12-03T12:32:16.102Z,102141.84
2022-12-03T12:34:46.359Z,102128.63
2022-12-03T12:37:18.515Z,102124.97
2022-12-03T12:39:47.719Z,102124.00
2022-12-03T12:42:30.199Z,102127.00
2022-12-03T12:45:02.217Z,102124.38
2022-12-03T12:47:32.004Z,102125.41
2022-12-03T12:49:59.958Z,102122.38
2022-12-03T12:52:28.656Z,102120.56
2022-12-03T12:55:03.082Z,102122.38
2022-12-03T12:57:34.756Z,102118.78
2022-12-03T13:00:03.889Z,102114.34
2022-12-03T13:02:45.655Z,102119.75
2022-12-03T13:05:15.012Z,102110.13
2022-12-03T13:07:43.951Z,102110.34
2022-12-03T13:10:32.971Z,102112.94
2022-12-03T13:13:03.884Z,102109.31
2022-12-03T13:15:43.427Z,102114.75
2022-12-03T13:18:23.188Z,102107.28
2022-12-03T13:20:50.851Z,102109.09
2022-12-03T13:23:28.275Z,102114.13
2022-12-03T13:26:04.013Z,102109.09
2022-12-03T13:28:37.069Z,102107.50
2022-12-03T13:31:22.269Z,102100.47
2022-12-03T13:33:50.315Z,102103.88
2022-12-03T13:36:20.767Z,102099.28
2022-12-03T13:38:49.081Z,102097.44
2022-12-03T13:41:38.636Z,102087.81
2022-12-03T13:44:16.549Z,102097.66
2022-12-03T13:46:44.426Z,102091.44
2022-12-03T13:49:19.597Z,102092.81
2022-12-03T13:51:47.499Z,102086.00
2022-12-03T13:54:20.660Z,102088.00
2022-12-03T13:56:50.256Z,102081.78
2022-12-03T13:59:22.985Z,102088.78
2022-12-03T14:01:53.906Z,102083.56
2022-12-03T14:04:21.541Z,102083.56
2022-12-03T14:06:49.220Z,102085.78
2022-12-03T14:09:16.869Z,102083.56
2022-12-03T14:12:01.962Z,102079.53
2022-12-03T14:14:30.918Z,102086.75
2022-12-03T14:17:00.188Z,102084.34
2022-12-03T14:19:28.206Z,102071.47
2022-12-03T14:21:55.844Z,102069.88
2022-12-03T14:24:23.620Z,102069.88
2022-12-03T14:26:51.293Z,102065.06
2022-12-03T14:29:19.023Z,102066.47
2022-12-03T14:31:48.030Z,102061.44
2022-12-03T14:34:15.714Z,102062.44
2022-12-03T14:36:44.161Z,102062.81
2022-12-03T14:39:11.867Z,102058.00
2022-12-03T14:41:53.463Z,102067.66
2022-12-03T14:44:21.847Z,102071.03
2022-12-03T14:46:56.575Z,102068.03
2022-12-03T14:49:24.859Z,102067.03
2022-12-03T14:51:52.493Z,102061.41
2022-12-03T14:54:20.178Z,102063.03
2022-12-03T14:56:47.838Z,102065.03
2022-12-03T14:59:15.503Z,102065.81
2022-12-03T15:01:43.206Z,102071.03
2022-12-03T15:04:12.325Z,102068.25
2022-12-03T15:06:40.001Z,102061.22
2022-12-03T15:09:07.831Z,102052.38
2022-12-03T15:11:35.686Z,102057.81
2022-12-03T15:14:03.319Z,102065.44
2022-12-03T15:16:30.955Z,102061.81
2022-12-03T15:18:58.612Z,102061.81
2022-12-03T15:21:28.511Z,102065.22
2022-12-03T15:23:56.228Z,102055.78
2022-12-03T15:26:23.909Z,102064.44
2022-12-03T15:28:51.595Z,102063.22
2022-12-03T15:31:19.281Z,102060.44
2022-12-03T15:33:47.005Z,102054.78
2022-12-03T15:36:14.827Z,102061.00
2022-12-03T15:38:43.836Z,102062.59
2022-12-03T15:41:25.435Z,102067.00
2022-12-03T15:43:53.234Z,102056.38
2022-12-03T15:46:21.362Z,102058.41
2022-12-03T15:48:49.314Z,102061.78
2022-12-03T15:51:17.607Z,102067.00
2022-12-03T15:53:46.817Z,102067.41
2022-12-03T15:56:14.853Z,102074.63
2022-12-03T15:58:42.763Z,102070.41
2022-12-03T16:01:10.589Z,102066.38
2022-12-03T16:03:38.263Z,102072.41
2022-12-03T16:06:06.500Z,102069.97
2022-12-03T16:08:34.173Z,102074.41
2022-12-03T16:11:03.164Z,102073.41
2022-12-03T16:13:30.868Z,102066.38
2022-12-03T16:15:58.548Z,102066.75
2022-12-03T16:18:26.296Z,102067.34
2022-12-03T16:20:53.951Z,102064.94
2022-12-03T16:23:21.664Z,102062.34
2022-12-03T16:25:49.374Z,102053.69
2022-12-03T16:28:18.359Z,102058.31
2022-12-03T16:30:46.033Z,102057.28
2022-12-03T16:33:13.683Z,102053.69
2022-12-03T16:35:41.323Z,102061.53
2022-12-03T16:38:08.991Z,102066.13
2022-12-03T16:40:36.694Z,102059.31
2022-12-03T16:43:04.868Z,102055.09
2022-12-03T16:46:02.305Z,102054.09
2022-12-03T16:48:30.672Z,102047.44
2022-12-03T16:50:58.315Z,102040.25
2022-12-03T16:53:25.964Z,102031.63
2022-12-03T16:55:53.638Z,102046.47
2022-12-03T16:58:21.496Z,102041.44
2022-12-03T17:00:51.124Z,102044.44
2022-12-03T17:03:19.005Z,102040.63
2022-12-03T17:05:47.057Z,102031.41
2022-12-03T17:08:15.810Z,102039.22
2022-12-03T17:10:43.808Z,102041.84
2022-12-03T17:13:11.813Z,102037.59
2022-12-03T17:15:40.411Z,102037.44
2022-12-03T17:18:10.396Z,102040.84
2022-12-03T17:20:38.537Z,102044.44
2022-12-03T17:23:06.231Z,102050.03
2022-12-03T17:25:34.864Z,102052.03
2022-12-03T17:28:02.340Z,102049.44
2022-12-03T17:30:30.004Z,102040.41
2022-12-03T17:32:57.728Z,102045.78
2022-12-03T17:35:28.502Z,102049.22
2022-12-03T17:37:56.412Z,102051.63
2022-12-03T17:40:24.166Z,102045.63
2022-12-03T17:42:51.841Z,102042.41
2022-12-03T17:45:19.504Z,102044.78
2022-12-03T17:47:47.133Z,102039.38
2022-12-03T17:50:14.808Z,102041.97
2022-12-03T17:52:43.837Z,102042.41
2022-12-03T17:55:17.828Z,102039.19
2022-12-03T17:57:49.139Z,102040.78
2022-12-03T18:00:17.252Z,102033.75
2022-12-03T18:02:44.872Z,102037.41
2022-12-03T18:05:13.457Z,102041.97
2022-12-03T18:07:41.082Z,102041.16
2022-12-03T18:10:10.549Z,102041.78
2022-12-03T18:12:38.429Z,102037.56
2022-12-03T18:15:06.740Z,102028.91
2022-12-03T18:17:34.381Z,102034.75
2022-12-03T18:20:02.215Z,102033.97
2022-12-03T18:22:29.961Z,102022.72
2022-12-03T18:24:58.028Z,102020.28
2022-12-03T18:27:27.008Z,102022.50
2022-12-03T18:29:54.812Z,102022.31
2022-12-03T18:32:30.220Z,102020.72
2022-12-03T18:34:58.690Z,102023.94
2022-12-03T18:37:28.376Z,102023.94
2022-12-03T18:39:57.568Z,102018.91
2022-12-03T18:42:27.288Z,102016.50
2022-12-03T18:44:56.518Z,102014.69
2022-12-03T18:47:25.930Z,102013.09
2022-12-03T18:49:55.355Z,102018.09
2022-12-03T18:52:24.948Z,102018.31
2022-12-03T18:54:52.788Z,102012.28
2022-12-03T18:57:20.436Z,102017.31
2022-12-03T18:59:49.538Z,102007.88
2022-12-03T19:02:53.785Z,102014.47
2022-12-03T19:05:08.069Z,102004.03
2022-12-03T19:07:35.884Z,102005.84
2022-12-03T19:10:03.825Z,102008.66
2022-12-03T19:12:31.776Z,102003.63
2022-12-03T19:15:00.772Z,102005.44
2022-12-03T19:17:28.607Z,102012.44
2022-12-03T19:19:56.634Z,102014.66
2022-12-03T19:22:24.854Z,102013.47
2022-12-03T19:24:52.513Z,102008.63
2022-12-03T19:27:20.440Z,101999.00
2022-12-03T19:29:49.408Z,102005.19
2022-12-03T19:32:18.527Z,102002.59
2022-12-03T19:34:46.156Z,102013.03
2022-12-03T19:37:13.836Z,102004.59
2022-12-03T19:39:43.059Z,101999.38
2022-12-03T19:42:11.006Z,102004.81
2022-12-03T19:44:39.054Z,101994.53
2022-12-03T19:47:06.757Z,101996.53
2022-12-03T19:49:35.775Z,101999.34
2022-12-03T19:52:03.475Z,101996.94
2022-12-03T19:54:31.137Z,101987.31
2022-12-03T19:56:58.828Z,101996.31
2022-12-03T19:59:26.525Z,101988.50
2022-12-03T20:01:54.314Z,101987.88
2022-12-03T20:04:22.138Z,101986.09
2022-12-03T20:06:51.136Z,101986.91
2022-12-03T20:09:20.617Z,101990.50
2022-12-03T20:11:51.776Z,101993.09
2022-12-03T20:14:19.611Z,101992.13
2022-12-03T20:16:47.653Z,101994.53
2022-12-03T20:19:17.861Z,101995.72
2022-12-03T20:21:45.661Z,101998.53
2022-12-03T20:24:17.176Z,101996.91
2022-12-03T20:26:45.048Z,101995.09
2022-12-03T20:29:14.353Z,101989.06
2022-12-03T20:31:42.087Z,101986.47
2022-12-03T20:34:11.191Z,101988.09
2022-12-03T20:36:39.855Z,101984.88
2022-12-03T20:39:08.869Z,101983.69
2022-12-03T20:41:38.818Z,101977.66
2022-12-03T20:44:07.887Z,101980.44
2022-12-03T20:46:36.225Z,101973.25
2022-12-03T20:49:04.647Z,101973.66
2022-12-03T20:51:32.727Z,101974.63
2022-12-03T20:54:02.056Z,101970.44
2022-12-03T20:56:33.784Z,101957.41
2022-12-03T20:59:04.793Z,101958.19
2022-12-03T21:01:32.762Z,101949.56
2022-12-03T21:04:00.624Z,101960.78
2022-12-03T21:06:29.953Z,101956.78
2022-12-03T21:08:59.377Z,101965.22
2022-12-03T21:11:30.716Z,101960.00
2022-12-03T21:13:59.530Z,101955.78
2022-12-03T21:17:05.865Z,101952.97
2022-12-03T21:19:21.852Z,101958.00
2022-12-03T21:21:49.663Z,101958.59
2022-12-03T21:24:17.346Z,101964.19
2022-12-03T21:26:45.013Z,101962.59
2022-12-03T21:29:12.954Z,101962.59
2022-12-03T21:31:41.975Z,101955.78
2022-12-03T21:34:09.610Z,101955.56
2022-12-03T21:36:40.057Z,101957.56
2022-12-03T21:39:08.157Z,101961.19
2022-12-03T21:41:36.084Z,101959.56
2022-12-03T21:44:03.964Z,101955.16
2022-12-03T21:47:11.640Z,101954.34
2022-12-03T21:49:20.831Z,101948.34
2022-12-03T21:51:48.475Z,101952.94
2022-12-03T21:54:16.235Z,101951.34
2022-12-03T21:56:43.863Z,101955.53
2022-12-03T21:59:11.572Z,101955.53
2022-12-03T22:01:42.918Z,101955.53
2022-12-03T22:04:14.553Z,101948.75
2022-12-03T22:06:43.622Z,101943.53
2022-12-03T22:09:11.280Z,101944.50
2022-12-03T22:11:38.931Z,101947.94
2022-12-03T22:14:08.202Z,101944.50
2022-12-03T22:16:36.037Z,101941.91
2022-12-03T22:19:03.761Z,101949.72
2022-12-03T22:21:31.455Z,101940.31
2022-12-03T22:24:00.457Z,101943.69
2022-12-03T22:26:28.139Z,101947.31
2022-12-03T22:28:55.790Z,101942.13
2022-12-03T22:31:23.469Z,101946.13
2022-12-03T22:33:51.145Z,101941.91
2022-12-03T22:36:21.611Z,101946.50
2022-12-03T22:38:50.368Z,101946.72
2022-12-03T22:41:20.982Z,101947.50
2022-12-03T22:43:49.614Z,101945.53
2022-12-03T22:46:18.335Z,101943.91
2022-12-03T22:48:47.608Z,101940.91
2022-12-03T22:51:17.523Z,101930.28
2022-12-03T22:53:45.208Z,101934.69
2022-12-03T22:56:13.252Z,101936.69
2022-12-03T22:58:42.275Z,101934.28
2022-12-03T23:01:10.331Z,101929.06
2022-12-03T23:03:38.154Z,101925.28
2022-12-03T23:06:11.231Z,101930.50
2022-12-03T23:08:39.030Z,101921.06
2022-12-03T23:11:07.039Z,101917.47
2022-12-03T23:13:35.231Z,101922.69
2022-12-03T23:16:04.801Z,101920.69
2022-12-03T23:18:32.870Z,101905.03
2022-12-03T23:21:00.905Z,101910.25
2022-12-03T23:23:31.123Z,101912.03
2022-12-03T23:25:59.879Z,101913.84
2022-12-03T23:28:28.478Z,101920.06
2022-12-03T23:30:56.071Z,101922.69
2022-12-03T23:33:26.095Z,101925.88
2022-12-03T23:35:53.940Z,101921.50
2022-12-03T23:38:21.790Z,101924.09
2022-12-03T23:40:49.566Z,101924.28
2022-12-03T23:43:17.413Z,101922.47
2022-12-03T23:45:46.870Z,101926.88
2022-12-03T23:48:14.494Z,101934.31
2022-12-03T23:50:43.518Z,101932.69
2022-12-03T23:53:11.150Z,101928.50
2022-12-03T23:55:40.814Z,101920.69
2022-12-03T23:58:08.689Z,101916.28
